^^

METAR Reports

 

KTHV - York, Pennsylvania, USA
Distance from station: NW 5mi, 8km
Updated: Sat, 09-Oct-2021 3:53am EDT
NOT Current
Overcast
Overcast
 Wind from SE
Wind: SE 7 mph , 11 km/h
Temperature: 64°F , 18°C
Dew Point: 57°F , 14°C
Humidity: 78%
Barometer: 30.13 inHg , 1020.3 hPa
Clouds: Overcast
Visibility: 10 miles , 16 km
Cloud details: Overcast 6000 ft
2021/10/09 07:53 KTHV 090753Z AUTO 13006KT 10SM OVC060 18/14 A3013 RMK AO2 SLP202 T01830144
KMDT - Middletown, Pennsylvania, USA
Distance from station: NNW 20mi, 32km
Updated: Tue, 19-Oct-2021 8:56am EDT
Clear
Clear
 Wind from NNE
Wind: NNE 3 mph , 6 km/h
Temperature: 52°F , 11°C
Dew Point: 41°F , 5°C
Humidity: 67%
Barometer: 30.12 inHg , 1020 hPa
Clouds: Clear
Visibility: 10 miles , 16 km
2021/10/19 12:56 KMDT 191256Z 03003KT 10SM CLR 11/05 A3012 RMK AO2 SLP200 T01110050
 
KLNS - Lancaster, Pennsylvania, USA
Distance from station: N 34mi, 55km
Updated: Tue, 19-Oct-2021 8:53am EDT
Clear
Clear
 Wind from WNW
Wind: WNW 7 mph , 11 km/h
Temperature: 50°F , 10°C
Wind Chill: 47°F , 8°C
Dew Point: 39°F , 4°C
Humidity: 67%
Barometer: 30.12 inHg , 1020 hPa
Clouds: Clear
Visibility: 10 miles , 16 km
2021/10/19 12:53 KLNS 191253Z 29006KT 10SM CLR 10/04 A3012 RMK AO2 SLP200 T01000044
KBWI - Baltrimore - Washington, Maryland, USA
Distance from station: S 52mi, 84km
Updated: Tue, 19-Oct-2021 8:54am EDT
Clear
Clear
 Wind from W
Wind: W 7 mph , 11 km/h
Temperature: 54°F , 12°C
Dew Point: 45°F , 7°C
Humidity: 72%
Barometer: 30.14 inHg , 1020.7 hPa
Clouds: Clear
Visibility: 10 miles , 16 km
2021/10/19 12:54 KBWI 191254Z 27006KT 10SM CLR 12/07 A3014 RMK AO2 SLP207 T01220067
 
KMQS - Coatesville, Pennsylvania, USA
Distance from station: NE 54mi, 86km
Updated: Tue, 19-Oct-2021 8:55am EDT
Clear
Clear
 Wind from calm
Wind: Calm
Temperature: 50°F , 10°C
Dew Point: 41°F , 5°C
Humidity: 71%
Barometer: 30.12 inHg , 1020 hPa
Clouds: Clear
Visibility: 10 miles , 16 km
2021/10/19 12:55 KMQS 191255Z AUTO 00000KT 10SM CLR 10/05 A3012 RMK AO2
KGAI - Gaithersburg, Maryland, USA
Distance from station: SW 54mi, 86km
Updated: Tue, 19-Oct-2021 8:56am EDT
Clear
Clear
 Wind from WNW
Wind: WNW 5 mph , 7 km/h
Temperature: 46°F , 8°C
Wind Chill: 44°F , 7°C
Dew Point: 43°F , 6°C
Humidity: 87%
Barometer: 30.17 inHg , 1021.7 hPa
Clouds: Clear
Visibility: 10 miles , 16 km
2021/10/19 12:56 KGAI 191256Z AUTO 30004KT 10SM CLR 08/06 A3017 RMK AO2 SLP232 T00830056 PNO $
 
KFME - Fort Meade, Maryland, USA
Distance from station: SSW 58mi, 93km
Updated: Tue, 19-Oct-2021 8:55am EDT
Clear
Clear
 Wind from calm
Wind: Calm
Temperature: 43°F , 6°C
Dew Point: 43°F , 6°C
Humidity: 100%
Barometer: 30.18 inHg , 1022 hPa
Clouds: Clear
Visibility: 10 miles , 16 km
2021/10/19 12:55 KFME 191255Z AUTO 00000KT 10SM CLR 06/06 A3018 RMK AO1
KCGS - College Park, Maryland, USA
Distance from station: SW 65mi, 104km
Updated: Tue, 19-Oct-2021 8:35am EDT
Clear
Clear
 Wind from calm
Wind: Calm
Temperature: 45°F , 7°C
Dew Point: 43°F , 6°C
Humidity: 93%
Barometer: 30.16 inHg , 1021.3 hPa
Clouds: Clear
Visibility: 10 miles , 16 km
2021/10/19 12:35 KCGS 191235Z AUTO 00000KT 10SM CLR 07/06 A3016 RMK AO1 T00680059
 
KILG - Wilmington, Delaware, USA
Distance from station: E 69mi, 111km
Updated: Tue, 19-Oct-2021 8:51am EDT
Clear
Clear
 Wind from WNW
Wind: WNW 9 mph , 15 km/h
Temperature: 50°F , 10°C
Wind Chill: 46°F , 8°C
Dew Point: 41°F , 5°C
Humidity: 71%
Barometer: 30.13 inHg , 1020.3 hPa
Clouds: Clear
Visibility: 10 miles , 16 km
2021/10/19 12:51 KILG 191251Z AUTO 29008KT 10SM CLR 10/05 A3013 RMK AO2 SLP203 T01000050
KW29 - Stevensville, Maryland, USA
Distance from station: S 71mi, 114km
Updated: Sun, 28-Mar-2021 8:55am EDT
NOT Current
Nearby thunderstorm, Rain, Mist, Overcast
Nearby thunderstorm, Rain, Mist, Overcast
 Wind from ESE
Wind: ESE 6 mph , 9 km/h
Temperature: 57°F , 14°C
Barometer: 29.84 inHg , 1010.5 hPa
Summary: Nearby thunderstorm, Rain, Mist
Clouds: Overcast
Visibility: 2 miles , 3 km
Cloud details: Overcast 300 ft
2021/03/28 12:55 KW29 281255Z AUTO 12005KT 2SM VCTSRA BR OVC003 14/ A2984 RMK AO2 LTG DSNT S AND W
 
KAGC - Pittsburgh (Allegheny County), Pennsylvania, USA
Distance from station: W 164mi, 265km
Updated: Tue, 19-Oct-2021 6:53am EDT
NOT Current
Clear
Clear
 Wind from S
Wind: S 7 mph , 11 km/h
Temperature: 43°F , 6°C
Wind Chill: 39°F , 4°C
Dew Point: 37°F , 3°C
Humidity: 81%
Barometer: 30.15 inHg , 1021 hPa
Clouds: Clear
Visibility: 10 miles , 16 km
2021/10/19 10:53 KAGC 191053Z 18006KT 10SM CLR 06/03 A3015 RMK AO2 SLP217 T00560028
KPIT - Pittsburgh, Pennsylvania, USA
Distance from station: W 182mi, 293km
Updated: Tue, 19-Oct-2021 8:51am EDT
Clear
Clear
 Wind from WSW
Wind: WSW 5 mph , 7 km/h
Temperature: 46°F , 8°C
Wind Chill: 44°F , 7°C
Dew Point: 39°F , 4°C
Humidity: 76%
Barometer: 30.19 inHg , 1022.4 hPa
Clouds: Clear
Visibility: 10 miles , 16 km
2021/10/19 12:51 KPIT 191251Z 25004KT 10SM CLR 08/04 A3019 RMK AO2 SLP234 T00830044
 
KFFO - Wright Patterson AFB, Ohio, USA
Distance from station: W 381mi, 613km
Updated: Tue, 19-Oct-2021 8:56am EDT
Clear
Clear
 Wind from calm
Wind: Calm
Temperature: 45°F , 7°C
Dew Point: 39°F , 4°C
Humidity: 81%
Barometer: 30.22 inHg , 1023.4 hPa
Clouds: Clear
Visibility: 10 miles , 16 km
2021/10/19 12:56 KFFO 191256Z AUTO 00000KT 10SM CLR 07/04 A3022 RMK AO2 SLP239 T00700038
KDAY - Dayton, Ohio, USA
Distance from station: W 390mi, 628km
Updated: Tue, 19-Oct-2021 8:56am EDT
Clear
Clear
 Wind from SW
Wind: SW 3 mph , 6 km/h
Temperature: 52°F , 11°C
Dew Point: 43°F , 6°C
Humidity: 72%
Barometer: 30.23 inHg , 1023.7 hPa
Clouds: Clear
Visibility: 10 miles , 16 km
2021/10/19 12:56 KDAY 191256Z 22003KT 10SM CLR 11/06 A3023 RMK AO2 SLP237 T01060061
 
KATL - Hartsfield Atlanta, Georgia, USA
Distance from station: S 602mi, 969km
Updated: Tue, 19-Oct-2021 8:52am EDT
Few Clouds
Few Clouds
 Wind from calm
Wind: Calm
Temperature: 55°F , 13°C
Dew Point: 48°F , 9°C
Humidity: 77%
Barometer: 30.25 inHg , 1024.4 hPa
Clouds: Few Clouds
Visibility: 10 miles , 16 km
Cloud details: Few Clouds 20000 ft
2021/10/19 12:52 KATL 191252Z 00000KT 10SM FEW200 13/09 A3025 RMK AO2 SLP240 T01280089
KBHM - Birmingham, Alabama, USA
Distance from station: SSW 701mi, 1,128km
Updated: Tue, 19-Oct-2021 8:53am EDT
Clear
Clear
 Wind from calm
Wind: Calm
Temperature: 52°F , 11°C
Dew Point: 48°F , 9°C
Humidity: 88%
Barometer: 30.24 inHg , 1024 hPa
Clouds: Clear
Visibility: 10 miles , 16 km
2021/10/19 12:53 KBHM 191253Z 00000KT 10SM CLR 11/09 A3024 RMK AO2 SLP228 T01060089 $